Weather observations for the past three days for
Anvik, Anvik Airport
Metric (Imperial)
Date Time (akdt) Wind (kph) Vis. (km) Weather Sky Cond. Temperature (ºC) Relative Humidity Wind Chill (°C) Heat Index (°C) Pressure Precipitation (cm)
Air Dwpt 6 hour altimeter (cm) sea level (mb) 1 hr 3 hr 6 hr
Max. Min.
06 05:56 W 7 16.09 Fair CLR -6.1 -7.8 88% -9 76.17 1025.8
06 04:56 W 7 16.09 Fair CLR -5.6 -7.2 89% -9 76.15 1025.4
06 03:56 W 7 16.09 Fair CLR -5.6 -7.2 1.7 -5.6 89% -9 76.12 1025.3
06 02:56 W 6 16.09 Fair CLR -4.4 -7.2 81% 76.1 1024.7
06 01:56 N 7 16.09 Fair CLR -3.9 -6.7 81% -7 76.07 1024.2
06 00:56 NW 7 16.09 Fair CLR -2.8 -6.1 78% -5 76.02 1023.6
05 23:56 NW 9 16.09 Fair CLR -2.2 -6.1 75% -5 75.97 1023.0
05 22:56 Vrbl 7 16.09 Fair CLR 0 -5.6 66% -2 75.95 1022.3
05 21:56 N 13 16.09 Fair CLR 1.7 -7.2 3.9 1.7 52% -2 75.92 1021.4
05 20:56 NW 15 16.09 Fair CLR 2.8 -6.7 50% -1 75.87 1020.8
05 19:56 NW 13 16.09 Fair CLR 3.3 -7.8 44% 0 75.84 1020.7
05 18:56 NW 15 16.09 Fair CLR 3.3 -7.8 44% 0 75.82 1020.2
05 17:56 NW 17 G 28 16.09 Fair CLR 3.9 -7.8 43% 0 75.77 1019.4
05 16:56 NW 24 G 33 16.09 Fair CLR 3.3 -8.3 43% -1 75.77 1019.2
05 15:56 NW 20 G 28 16.09 Fair CLR 3.3 -7.8 3.3 0 44% -1 75.74 1018.9
05 14:56 NW 22 G 31 16.09 Fair CLR 2.8 -7.8 46% -2 75.72 1018.4
05 13:56 W 20 G 28 16.09 Fair CLR 2.2 -8.3 46% -2 75.72 1018.2
05 12:56 NW 20 G 37 16.09 Fair CLR 1.7 -7.8 50% -3 75.69 1018.0
05 11:56 NW 22 G 33 16.09 Fair CLR 1.1 -7.8 52% -4 75.67 1017.6
05 10:56 NW 20 G 31 16.09 Fair CLR 0.6 -8.3 52% -4 75.62 1017.0
05 09:56 NW 20 16.09 Fair CLR 0 -6.7 0 -2.8 61% -5 75.62 1016.6
05 08:56 W 19 16.09 Fair CLR -0.6 -5.6 69% -5 75.57 1016.0
05 07:56 W 11 16.09 Fair CLR -2.2 -5 81% -6 75.54 1015.7
05 06:56 NW 13 16.09 Fair CLR -2.2 -5 81% -6 75.51 1015.1
05 05:56 NW 11 16.09 Overcast OVC085 -1.7 -4.4 82% -5 75.49 1014.8
05 04:56 W 11 16.09 Mostly Cloudy FEW050 BKN085 -1.1 -3.9 82% -5 75.46 1014.1
05 03:56 W 7 16.09 Mostly Cloudy BKN080 -1.1 -3.3 3.9 -1.1 85% -3 75.44 1014.1
05 02:56 W 6 16.09 Fair CLR 0 -3.3 79% 75.44 1013.9
05 01:56 Vrbl 11 16.09 A Few Clouds FEW075 1.7 -3.3 70% -1 75.44 1013.8
05 00:56 Vrbl 9 16.09 Mostly Cloudy FEW060 BKN075 1.7 -3.3 70% -1 75.44 1014.0
04 23:56 NW 9 16.09 Overcast BKN060 OVC080 2.2 -2.8 70% -0 75.46 1014.3
04 22:56 NW 9 16.09 Overcast OVC070 2.8 -2.8 67% 1 75.46 1014.7
04 21:56 NW 15 16.09 A Few Clouds FEW070 3.9 -2.8 6.7 3.9 62% 1 75.46 1014.6
04 20:56 N 15 16.09 Fair CLR 5 -2.8 57% 2 75.49 1015.0
04 19:56 N 13 16.09 A Few Clouds FEW044 6.1 -2.2 56% 4 75.54 1015.6
04 18:56 NW 15 16.09 Fair CLR 6.7 -2.2 53% 4 75.57 1016.2
04 17:56 N 15 G 28 16.09 Fair CLR 6.1 -2.8 53% 3 75.62 1016.9
04 16:56 NE 13 16.09 Fair CLR 6.1 -3.3 51% 4 75.67 1017.5
04 15:56 NE 15 G 26 16.09 Fair CLR 5.6 -3.3 5.6 0 53% 3 75.74 1018.5
04 14:56 NE 15 16.09 Fair CLR 5 -3.9 53% 2 75.82 1019.8
04 13:56 NE 22 16.09 Fair CLR 4.4 -3.9 55% 0 75.9 1020.8
04 12:56 N 13 16.09 Fair CLR 3.9 -3.3 60% 1 75.97 1021.6
04 11:56 N 9 16.09 Fair CLR 2.8 -4.4 59% 1 76.05 1022.8
04 10:56 NE 9 16.09 Fair CLR 1.7 -4.4 64% -1 76.07 1023.5
04 09:56 N 13 16.09 Fair CLR 0 -5 1.7 -5 69% -4 76.15 1024.6
04 08:56 NW 7 16.09 Fair CLR -1.7 -4.4 82% -4 76.17 1025.4
04 07:56 NW 7 16.09 Fair CLR -3.3 -4.4 92% -6 76.2 1025.8
04 06:56 NW 7 16.09 Fair CLR -5 -5.6 96% -8 76.23 1026.5
04 05:56 NW 6 16.09 Fair CLR -4.4 -6.1 88% 76.25 1026.8
04 04:56 NW 6 16.09 Fair CLR -2.8 -4.4 89% 76.23 1026.4
04 03:56 NW 6 16.09 Fair CLR -1.1 -4.4 3.3 -1.1 79% 76.25 1026.6
04 02:56 N 7 16.09 Fair CLR -0.6 -3.9 79% -3 76.28 1027.1
04 01:56 NE 11 16.09 Overcast OVC034 0.6 -4.4 70% -2 76.3 1027.2
04 00:56 N 7 16.09 Fair CLR 1.7 -4.4 64% -0 76.28 1026.8
03 23:56 N 6 16.09 Fair CLR 2.2 -5 59% 76.3 1026.9
03 22:56 Calm 16.09 Fair CLR 3.3 -4.4 57% 76.28 1026.9
03 21:56 Calm 16.09 Fair CLR 3.3 -4.4 4.4 1.7 57% 76.3 1027.1
03 20:56 E 9 16.09 Fair CLR 3.9 -3.9 57% 2 76.3 1027.2
03 19:56 Vrbl 6 16.09 Fair CLR 4.4 -3.9 55% 76.33 1027.4
03 18:56 E 7 16.09 Fair CLR 3.9 -3.9 57% 2 76.33 1027.6
03 17:56 Calm 16.09 Fair CLR 3.3 -3.9 60% 76.35 1028.2
03 16:56 E 7 16.09 Fair CLR 2.2 -3.9 64% 0 76.4 1028.7
03 15:56 E 6 16.09 Fair CLR 1.7 -3.9 1.7 -1.7 67% 76.43 1029.4
03 14:56 Vrbl 9 16.09 A Few Clouds FEW019 0.6 -4.4 70% -2 76.43 1029.5
03 13:56 Vrbl 6 16.09 Overcast OVC019 0 -4.4 73% 76.45 1029.9
03 12:56 N 7 16.09 Overcast OVC017 1.1 -4.4 67% -1 76.48 1029.8
03 11:56 NE 9 16.09 Overcast OVC017 0.6 -4.4 70% -2 76.48 1030.0
03 10:56 Vrbl 6 16.09 Overcast OVC015 -1.1 -4.4 79% 76.45 1029.8
03 09:56 NE 7 16.09 Overcast OVC013 -1.7 -4.4 -1.7 -2.2 82% -4 76.43 1029.2
03 08:56 Calm 16.09 Overcast OVC015 -1.7 -4.4 82% 76.4 1028.8
03 07:56 Calm 16.09 Overcast OVC015 -2.2 -5 81% 76.38 1028.4
03 06:56 W 7 16.09 Overcast OVC015 -2.2 -5 81% -5 76.33 1027.8
Date Time (akdt) Wind (kph) Vis. (km) Weather Sky Cond. Air Dwpt Max. Min. Relative Humidity Wind Chill (°C) Heat Index (°C) altimeter (cm) sea level (mb) 1 hr 3 hr 6 hr
6 hour
Temperature (ºC) Pressure Precipitation (cm)